Terminal Aerodrome Forecast
Issued by NWS

Current Version | Previous Version | Text Only | Print | Product List | Glossary On
Versions: 1 2 3 4 5 6 7 8 9 10 11 12 13 14
000
FTUS41 KPHI 041518 AAA
TAFPNE
TAF AMD
KPNE 041518Z 0415/0512 24008KT P6SM SCT040
     FM041700 24011G21KT P6SM BKN040
      TEMPO 0421/0423 5SM -TSRA OVC035CB
     FM042300 27009G16KT P6SM BKN050
     FM050100 30005KT P6SM SCT070=

USA.gov is the U.S. government's official web portal to all federal, state and local government web resources and services.